Latest Weather Observations for Bickley

IDW60801

Issued at 1:35 am WST Saturday 23 August 2014 (issued every 30 minutes, with the page automatically refreshed every 10 minutes)

About weather observations | Map of weather stations | Latest weather observations for WA | Other Formats
Station Details ID: 009240 Name: BICKLEY Lat: -32.01 Lon: 116.14 Height: 384.0 m
Data from the previous 72 hours. | See also: Recent months at Bickley
Date/Time
WST
Temp
°C
App
Temp
°C
Dew
Point
Rel
Hum
%
Delta-T
°C
Wind Press
QNH
hPa
Press
MSL
hPa
Rain
since 9 am
mm
Dir
 
Spd
km/h
Gust
km/h
Spd
kts
Gust
kts
23/01:30am 8.5 - 7.3 92 0.6 - - - - - - - 0.0
23/01:00am 8.8 - 7.1 89 0.8 - - - - - - - 0.0
23/12:30am 9.3 - 7.1 86 1.1 - - - - - - - 0.0
23/12:00am 9.7 - 7.1 84 1.3 - - - - - - - 0.0
 
Date/Time
WST
Temp
°C
App
Temp
°C
Dew
Point
Rel
Hum
%
Delta-T
°C
Wind Press
QNH
hPa
Press
MSL
hPa
Rain
since 9 am
mm
Dir
 
Spd
km/h
Gust
km/h
Spd
kts
Gust
kts
22/11:30pm 9.9 - 7.0 82 1.4 - - - - - - - 0.0
22/11:00pm 10.2 - 7.1 81 1.5 - - - - - - - 0.0
22/10:30pm 10.2 - 7.4 83 1.4 - - - - - - - 0.0
22/10:00pm 10.5 - 7.2 80 1.6 - - - - - - - 0.0
22/09:30pm 10.4 - 7.5 82 1.4 - - - - - - - 0.0
22/09:00pm 10.8 - 7.7 81 1.5 - - - - - - - 0.0
22/08:30pm 10.8 - 7.7 81 1.5 - - - - - - - 0.0
22/08:00pm 10.8 - 7.5 80 1.6 - - - - - - - 0.0
22/07:30pm 11.0 - 7.1 77 1.9 - - - - - - - 0.0
22/07:00pm 10.8 - 7.3 79 1.7 - - - - - - - 0.0
22/06:30pm 11.3 - 7.4 77 1.9 - - - - - - - 0.0
22/06:00pm 11.8 - 7.3 74 2.2 - - - - - - - 0.0
22/05:30pm 12.8 - 7.9 72 2.5 - - - - - - - 0.0
22/05:00pm 14.0 - 8.0 67 3.0 - - - - - - - 0.0
22/04:30pm 14.0 - 7.1 63 3.4 - - - - - - - 0.0
22/04:00pm 15.4 13.5 6.9 57 4.3 W 6 9 3 5 - - 0.0
22/03:30pm 15.1 - 7.4 60 3.9 - - - - - - - 0.0
22/03:00pm 15.6 13.4 6.3 54 4.6 N 7 11 4 6 - - 0.0
22/02:30pm 16.5 14.2 5.5 48 5.4 NW 7 15 4 8 - - 0.0
22/02:00pm 15.7 14.2 6.7 55 4.5 SSE 4 9 2 5 - - 0.0
22/01:30pm 15.1 - 5.3 52 4.7 - - - - - - - 0.0
22/01:00pm 14.8 12.3 6.4 57 4.1 SSW 9 13 5 7 - - 0.0
22/12:30pm 14.9 - 6.0 55 4.4 - - - - - - - 0.0
22/12:00pm 15.2 12.7 6.5 56 4.3 WNW 9 17 5 9 - - 0.0
22/11:30am 14.3 11.2 7.1 62 3.6 SSW 13 20 7 11 - - 0.0
22/11:00am 14.6 12.5 8.1 65 3.3 SW 9 17 5 9 - - 0.0
22/10:30am 13.8 11.4 7.1 64 3.3 SW 9 13 5 7 - - 0.0
22/10:00am 13.2 10.6 7.9 70 2.7 S 11 15 6 8 - - 0.0
22/09:30am 12.7 10.1 7.8 72 2.5 SSW 11 20 6 11 - - 0.0
22/09:00am 12.2 10.1 8.3 77 2.0 S 9 13 5 7 - - 10.6
22/08:30am 11.8 9.9 7.5 75 2.1 S 7 11 4 6 - - 10.6
22/08:00am 10.1 8.4 8.2 88 0.9 SSW 7 13 4 7 - - 10.6
22/07:30am 9.5 7.4 8.3 92 0.6 SSW 9 13 5 7 - - 10.6
22/07:00am 9.2 - 8.4 95 0.4 - - - - - - - 10.6
22/06:30am 9.7 - 8.9 95 0.4 - - - - - - - 10.6
22/06:00am 9.7 - 9.2 97 0.3 - - - - - - - 10.6
22/05:30am 9.9 - 9.4 97 0.3 - - - - - - - 10.6
22/05:00am 9.8 - 9.3 97 0.3 - - - - - - - 10.6
22/04:30am 10.4 - 9.6 95 0.4 - - - - - - - 10.6
22/04:00am 10.4 - 9.5 94 0.5 - - - - - - - 10.2
22/03:30am 10.4 - 9.3 93 0.6 - - - - - - - 10.2
22/03:00am 10.3 - 9.5 95 0.4 - - - - - - - 10.2
22/02:30am 10.8 - 8.2 84 1.3 - - - - - - - 9.8
22/02:00am 11.0 - 7.9 81 1.5 - - - - - - - 9.8
22/01:30am 10.8 - 8.2 84 1.3 - - - - - - - 9.8
22/01:00am 10.9 - 9.7 92 0.6 - - - - - - - 9.8
22/12:30am 11.3 - 11.0 98 0.2 - - - - - - - 9.8
22/12:00am 11.4 - 11.2 99 0.1 - - - - - - - 9.8
 
Date/Time
WST
Temp
°C
App
Temp
°C
Dew
Point
Rel
Hum
%
Delta-T
°C
Wind Press
QNH
hPa
Press
MSL
hPa
Rain
since 9 am
mm
Dir
 
Spd
km/h
Gust
km/h
Spd
kts
Gust
kts
21/11:30pm 11.5 - 11.3 99 0.1 - - - - - - - 9.2
21/11:00pm 12.2 - 12.0 99 0.1 - - - - - - - 7.8
21/10:30pm 12.1 - 11.9 99 0.1 - - - - - - - 7.6
21/10:00pm 12.2 - 12.0 99 0.1 - - - - - - - 7.6
21/09:30pm 12.3 - 12.1 99 0.1 - - - - - - - 7.6
21/09:00pm 12.5 - 12.3 99 0.1 - - - - - - - 6.8
21/08:30pm 12.6 - 12.4 99 0.1 - - - - - - - 6.2
21/08:00pm 12.4 - 12.2 99 0.1 - - - - - - - 6.2
21/07:30pm 12.3 - 12.1 99 0.1 - - - - - - - 6.2
21/07:00pm 12.2 - 12.0 99 0.1 - - - - - - - 5.0
21/06:30pm 12.0 - 11.8 99 0.1 - - - - - - - 5.0
21/06:00pm 11.8 - 11.6 99 0.1 - - - - - - - 5.0
21/05:30pm 11.7 - 11.5 99 0.1 - - - - - - - 5.0
21/05:00pm 12.6 - 12.4 99 0.1 - - - - - - - 3.4
21/04:30pm 12.5 - 12.3 99 0.1 - - - - - - - 2.4
21/04:00pm 12.7 - 12.5 99 0.1 - - - - - - - 1.8
21/03:30pm 13.7 - 13.2 97 0.3 - - - - - - - 0.4
21/03:00pm 14.7 10.0 12.0 84 1.5 WNW 28 48 15 26 - - 0.2
21/02:30pm 15.2 - 11.8 80 1.9 - - - - - - - 0.2
21/02:00pm 16.4 - 10.9 70 3.0 - - - - - - - 0.2
21/01:30pm 16.7 12.8 10.8 68 3.2 WNW 22 41 12 22 - - 0.2
21/01:00pm 16.9 12.5 10.3 65 3.6 WNW 24 41 13 22 - - 0.2
21/12:30pm 17.3 - 10.2 63 3.8 - - - - - - - 0.2
21/12:00pm 16.4 11.0 9.6 64 3.6 W 28 39 15 21 - - 0.2
21/11:47am 15.8 10.5 9.7 67 3.2 WNW 28 46 15 25 - - 0.2
21/11:30am 15.7 - 11.3 75 2.4 - - - - - - - 0.2
21/11:00am 16.1 12.0 11.3 73 2.6 WNW 24 39 13 21 - - 0.2
21/10:30am 15.7 10.5 11.5 76 2.3 WNW 30 48 16 26 - - 0.2
21/10:25am 15.6 11.0 12.4 81 1.8 WNW 28 48 15 26 - - 0.2
21/10:00am 15.2 11.0 12.3 83 1.6 W 26 43 14 23 - - 0.2
21/09:30am 15.0 12.3 13.4 90 0.9 W 20 33 11 18 - - 0.2
21/09:00am 14.9 12.5 14.3 96 0.3 W 20 35 11 19 - - 10.6
21/08:30am 14.4 11.9 14.2 99 0.1 WNW 20 32 11 17 - - 10.6
21/08:00am 14.2 - 14.0 99 0.1 - - - - - - - 10.6
21/07:30am 13.9 - 13.7 99 0.1 - - - - - - - 9.6
21/07:00am 14.0 - 13.8 99 0.1 - - - - - - - 8.0
21/06:30am 14.2 - 14.0 99 0.1 - - - - - - - 6.0
21/06:00am 14.1 - 13.8 98 0.2 - - - - - - - 5.0
21/05:30am 13.9 - 13.6 98 0.2 - - - - - - - 4.4
21/05:00am 14.1 - 13.0 93 0.6 - - - - - - - 4.0
21/04:30am 14.4 - 12.3 87 1.2 - - - - - - - 3.8
21/04:00am 14.3 - 12.0 86 1.3 - - - - - - - 3.8
21/03:30am 14.2 - 11.7 85 1.4 - - - - - - - 3.8
21/03:00am 14.2 - 11.7 85 1.4 - - - - - - - 3.8
21/02:30am 13.5 - 11.7 89 1.0 - - - - - - - 3.8
21/02:00am 12.8 - 11.7 93 0.6 - - - - - - - 3.8
21/01:30am 12.9 - 11.8 93 0.6 - - - - - - - 3.8
21/01:00am 13.2 - 12.1 93 0.6 - - - - - - - 3.8
21/12:30am 13.4 - 12.3 93 0.6 - - - - - - - 3.8
21/12:00am 13.0 - 11.7 92 0.7 - - - - - - - 3.8
 
Date/Time
WST
Temp
°C
App
Temp
°C
Dew
Point
Rel
Hum
%
Delta-T
°C
Wind Press
QNH
hPa
Press
MSL
hPa
Rain
since 9 am
mm
Dir
 
Spd
km/h
Gust
km/h
Spd
kts
Gust
kts
20/11:30pm 12.6 - 11.0 90 0.9 - - - - - - - 3.8
20/11:00pm 12.5 - 10.9 90 0.9 - - - - - - - 3.8
20/10:30pm 12.3 - 10.5 89 1.0 - - - - - - - 3.8
20/10:00pm 12.6 - 10.7 88 1.0 - - - - - - - 3.8
20/09:30pm 12.7 - 10.9 89 1.0 - - - - - - - 3.8
20/09:00pm 12.7 - 11.1 90 0.9 - - - - - - - 3.8
20/08:30pm 12.8 - 11.2 90 0.9 - - - - - - - 3.8
20/08:00pm 12.8 - 11.0 89 1.0 - - - - - - - 3.8
20/07:30pm 12.9 - 11.1 89 1.0 - - - - - - - 3.8
20/07:00pm 12.4 - 11.0 91 0.7 - - - - - - - 3.8
20/06:30pm 12.0 - 10.6 91 0.7 - - - - - - - 3.8
20/06:00pm 12.7 - 10.6 87 1.1 - - - - - - - 3.8
20/05:30pm 13.6 - 10.6 82 1.6 - - - - - - - 3.8
20/05:00pm 14.5 12.0 10.9 79 1.9 NW 15 28 8 15 - - 3.8
20/04:30pm 14.7 11.3 10.7 77 2.2 NW 19 30 10 16 - - 3.8
20/04:00pm 15.3 13.3 12.8 85 1.4 NW 15 28 8 15 - - 3.8
20/03:30pm 14.9 13.9 13.3 90 0.9 NNW 11 20 6 11 - - 3.8
20/03:00pm 14.0 - 12.6 91 0.8 - - - - - - - 3.8
20/02:30pm 12.7 9.8 12.4 98 0.2 NW 19 30 10 16 - - 3.8
20/02:00pm 13.7 - 12.8 94 0.5 - - - - - - - 2.6
20/01:30pm 13.6 - 12.8 95 0.4 - - - - - - - 2.6
20/01:00pm 13.0 11.0 12.7 98 0.2 NNW 15 26 8 14 - - 2.6
20/12:30pm 12.9 - 12.7 99 0.1 - - - - - - - 1.8
20/12:00pm 13.0 - 12.8 99 0.1 - - - - - - - 1.4
20/11:30am 13.1 - 12.5 96 0.3 - - - - - - - 1.0
20/11:00am 13.6 11.2 12.5 93 0.6 NW 17 24 9 13 - - 0.0
20/10:30am 13.5 11.4 12.4 93 0.6 NNW 15 26 8 14 - - 0.0
20/10:00am 13.5 - 12.2 92 0.7 - - - - - - - 0.0
20/09:30am 13.3 - 12.0 92 0.7 - - - - - - - 0.0
20/09:00am 12.9 - 12.7 99 0.1 - - - - - - - 0.4
20/08:30am 11.8 - 11.6 99 0.1 - - - - - - - 0.4
20/08:00am 11.5 10.6 11.3 99 0.1 NNE 7 13 4 7 - - 0.4
20/07:30am 10.5 - 10.3 99 0.1 - - - - - - - 0.4
20/07:00am 10.4 - 10.2 99 0.1 - - - - - - - 0.4
20/06:30am 11.2 - 11.0 99 0.1 - - - - - - - 0.4
20/06:00am 11.3 - 11.1 99 0.1 - - - - - - - 0.4
20/05:30am 11.5 - 11.3 99 0.1 - - - - - - - 0.2
20/05:00am 11.1 - 10.9 99 0.1 - - - - - - - 0.2
20/04:30am 11.3 - 11.1 99 0.1 - - - - - - - 0.2
20/04:00am 11.6 - 11.4 99 0.1 - - - - - - - 0.2
20/03:30am 11.5 - 11.0 97 0.3 - - - - - - - 0.2
20/03:00am 11.6 - 11.3 98 0.2 - - - - - - - 0.2
20/02:30am 11.7 - 11.5 99 0.1 - - - - - - - 0.2
20/02:00am 11.7 - 11.5 99 0.1 - - - - - - - 0.2

Other Formats:

Comma delimited format used in spreadsheet applications
http://www.bom.gov.au/fwo/IDW60801/IDW60801.95610.axf

JavaScript Object Notation format (JSON) in row-major order
http://www.bom.gov.au/fwo/IDW60801/IDW60801.95610.json